Double Eagle Ii, NM

1:27 PM MST on January 25, 2015 (GMT -0700)
Next to the Petroglyph Natl. Monument | Change Station
CLOSE
Current Station
Personal Weather Station
Location: Albuquerque, NM
Elevation: 5245 ft
Nearby Weather Stations

Elev 5245 ft 35.11 °N, 106.74 °W | Updated 3 seconds ago

Clear
Clear
54.5 °F
Feels Like 54.5 °F
N
0.0
Wind Variable Wind from SSW
Gusts 0.0 mph

Today
High -- | Low -- °F
--% Chance of Precip.
Yesterday
High -- | Low -- °F
Precip. -- in
7:10 AM 5:28 PM
Waxing Crescent, 35% visible
Pressure 30.25 in
Visibility 10.0 miles
Clouds Few 20000 ft
Dew Point 21 °F
Humidity 27%
Rainfall 0.00 in
Snow Depth Not available.
UV 4 out of 12
Pollen 2.40 out of 12
Air Quality Not available.
Flu Activity Not available.
METAR KABQ 251952Z 19003KT 10SM FEW200 09/M06 A3028 RMK AO2 SLP242 T00891061

More Conditions Fewer Conditions

Pressure 30.25 in
Visibility 10.0 miles
Clouds Few 20000 ft
Dew Point 21 °F
Humidity 27%
Rainfall 0.00 in
Snow Depth Not available.
UV 4 out of 12
Pollen 2.40 out of 12
Air Quality Not available.
Flu Activity Not available.
METAR KABQ 251952Z 19003KT 10SM FEW200 09/M06 A3028 RMK AO2 SLP242 T00891061

More Conditions Fewer Conditions

10-Day Weather Forecast

Almanac

Astronomy

Jan. 25, 2015 Rise Set
Actual Time
Civil Twilight
Nautical Twilight
Astronomical Twilight
Moon
Length of Visible Light
Length of Day
Tomorrow will be .
, % of the Moon is Illuminated

Today's Extremes

State Highs State Lows

Community

WunderPhotos

Upload Photos

1,790,038 photos uploaded!

WunderBlogs® & News

Nearby

Air Quality

  Air Quality AQ Index Pollutant
Not available.

Snow Depth

Station Depth Elevation

Earthquake Activity

City Distance Mag. Time & Date
Minimum magnitude displayed is 2.5.

Coastal Water Temperatures

Place Temperature

Nearby Weather Stations